Maxwell, Iowa
Current Conditions -  °F | °C
As of 6:05 AM on Friday 19 Dec 2014 (Local Time) from KAMW Reporting Station
Overcast Overcast  
Wind Chill: 21°   Ceiling: 1400
Heat Index: 26°   Visibility: 7mi
Dew Point: 23°   Wind: 5mph
Humidity: 88%   Direction: 150°SSE
Pressure: 30.25"   Gusts: NA
Location:  41.89°N, 93.4°W
Report Text: KAMW 191205Z AUTO 15004KT 7SM OVC014 M03/M05 A3025 RMK AO2 T10331050
Loading
Personal Weather Stations






























Interactive Weather Map New forecast layout! Learn more

10-Day Weather Forecast

Advertisements
Track Severe Weather on mobile